EWG4TL EDDK-HEGN
Flight info
| Callsign | EWG4TL |
|---|---|
| Flight time | N/A |
| Altitude | 31000 |
| Route | KUMIK8F KUMIK L603 TESGA DCT ESATI DCT DETEV DCT DINKU L603 OLETU Z106 BAVAX M867 RADIZ DCT PINDO/N0452F330 DCT PAXIS L607 NABSI P557 OBRAN L321 REXUM M872 BOPOB BOPOB1A |
| Aircraft | A321/M-SDE3FGHIRWY/LB1 |
Departure
| Time | 2026-05-01 13:25 |
|---|---|
| Airport | Cologne Bonn Airport (EDDK) |
Arrival
| Time | N/A |
|---|---|
| Airport | Hurghada International Airport (HEGN) |
| Time | Latitude | Longitude | Altitude | Speed | Heading |
|---|---|---|---|---|---|
| 2026-05-01 13:09 | 50.88107 | 7.12100 | 241 ft | 0 kts | 216° |
| 2026-05-01 13:17 | 50.88122 | 7.12117 | 241 ft | 2 kts | 216° |
| 2026-05-01 13:17 | 50.88131 | 7.12128 | 241 ft | 0 kts | 216° |
| 2026-05-01 13:18 | 50.88157 | 7.12137 | 241 ft | 2 kts | 159° |
| 2026-05-01 13:18 | 50.88169 | 7.12125 | 241 ft | 0 kts | 130° |
| 2026-05-01 13:18 | 50.88173 | 7.12117 | 241 ft | 1 kts | 124° |
| 2026-05-01 13:18 | 50.88174 | 7.12114 | 241 ft | 0 kts | 126° |
| 2026-05-01 13:20 | 50.88173 | 7.12117 | 241 ft | 1 kts | 126° |
| 2026-05-01 13:20 | 50.88155 | 7.12156 | 241 ft | 6 kts | 127° |
| 2026-05-01 13:21 | 50.88087 | 7.12347 | 241 ft | 11 kts | 119° |
| 2026-05-01 13:21 | 50.88047 | 7.12452 | 241 ft | 11 kts | 120° |
| 2026-05-01 13:21 | 50.88007 | 7.12559 | 241 ft | 11 kts | 121° |
| 2026-05-01 13:21 | 50.87985 | 7.12675 | 241 ft | 11 kts | 89° |
| 2026-05-01 13:22 | 50.87996 | 7.12751 | 241 ft | 3 kts | 73° |
| 2026-05-01 13:22 | 50.87999 | 7.12772 | 241 ft | 2 kts | 73° |
| 2026-05-01 13:22 | 50.88004 | 7.12797 | 241 ft | 2 kts | 74° |
| 2026-05-01 13:22 | 50.88008 | 7.12842 | 241 ft | 4 kts | 86° |
| 2026-05-01 13:23 | 50.88009 | 7.12898 | 241 ft | 5 kts | 90° |
| 2026-05-01 13:23 | 50.88003 | 7.12957 | 241 ft | 5 kts | 108° |
| 2026-05-01 13:23 | 50.87981 | 7.13011 | 241 ft | 6 kts | 135° |
| 2026-05-01 13:23 | 50.87968 | 7.13030 | 241 ft | 1 kts | 139° |
| 2026-05-01 13:24 | 50.87960 | 7.13040 | 241 ft | 1 kts | 139° |
| 2026-05-01 13:24 | 50.87940 | 7.13068 | 240 ft | 13 kts | 138° |
| 2026-05-01 13:24 | 50.87679 | 7.13446 | 241 ft | 85 kts | 136° |
| 2026-05-01 13:25 | 50.86229 | 7.15543 | 438 ft | 180 kts | 136° |
| 2026-05-01 13:25 | 50.85317 | 7.16845 | 1139 ft | 180 kts | 139° |
| 2026-05-01 13:25 | 50.84392 | 7.18162 | 1931 ft | 179 kts | 137° |
| 2026-05-01 13:25 | 50.83493 | 7.19413 | 2533 ft | 172 kts | 138° |
| 2026-05-01 13:26 | 50.82565 | 7.20683 | 2788 ft | 184 kts | 138° |
| 2026-05-01 13:26 | 50.81683 | 7.22276 | 3024 ft | 198 kts | 119° |
| 2026-05-01 13:26 | 50.81265 | 7.24366 | 3325 ft | 211 kts | 101° |
| 2026-05-01 13:26 | 50.81080 | 7.26776 | 3600 ft | 225 kts | 98° |
| 2026-05-01 13:27 | 50.80920 | 7.29291 | 3965 ft | 235 kts | 98° |
| 2026-05-01 13:27 | 50.80726 | 7.31921 | 4238 ft | 249 kts | 99° |
| 2026-05-01 13:27 | 50.80277 | 7.37455 | 5278 ft | 258 kts | 99° |
| 2026-05-01 13:28 | 50.79793 | 7.43151 | 6374 ft | 265 kts | 100° |
| 2026-05-01 13:28 | 50.79543 | 7.46015 | 6926 ft | 267 kts | 100° |
| 2026-05-01 13:29 | 50.79030 | 7.51837 | 8064 ft | 270 kts | 99° |
| 2026-05-01 13:29 | 50.78534 | 7.57731 | 9154 ft | 274 kts | 95° |
| 2026-05-01 13:30 | 50.79518 | 7.69980 | 10879 ft | 297 kts | 82° |
| 2026-05-01 13:31 | 50.80273 | 7.76664 | 11333 ft | 321 kts | 82° |
| 2026-05-01 13:31 | 50.81494 | 7.87620 | 12002 ft | 354 kts | 82° |
| 2026-05-01 13:32 | 50.82341 | 7.95303 | 12917 ft | 359 kts | 82° |
| 2026-05-01 13:33 | 50.83064 | 8.07089 | 14243 ft | 364 kts | 102° |
| 2026-05-01 13:33 | 50.80800 | 8.14225 | 15115 ft | 368 kts | 123° |
| 2026-05-01 13:34 | 50.77917 | 8.20969 | 15931 ft | 373 kts | 123° |
| 2026-05-01 13:34 | 50.75030 | 8.27761 | 16747 ft | 377 kts | 123° |
| 2026-05-01 13:35 | 50.72105 | 8.34654 | 17547 ft | 382 kts | 123° |
| 2026-05-01 13:35 | 50.70545 | 8.38077 | 17912 ft | 385 kts | 129° |
| 2026-05-01 13:35 | 50.66399 | 8.43449 | 18653 ft | 392 kts | 148° |
| 2026-05-01 13:36 | 50.64014 | 8.45508 | 19006 ft | 395 kts | 150° |
| 2026-05-01 13:36 | 50.61596 | 8.47531 | 19328 ft | 398 kts | 150° |
| 2026-05-01 13:36 | 50.56681 | 8.51639 | 20004 ft | 403 kts | 150° |
| 2026-05-01 13:37 | 50.54182 | 8.53739 | 20343 ft | 405 kts | 150° |
| 2026-05-01 13:37 | 50.51717 | 8.55812 | 20663 ft | 407 kts | 150° |
| 2026-05-01 13:37 | 50.49222 | 8.57908 | 20989 ft | 409 kts | 150° |
| 2026-05-01 13:37 | 50.46748 | 8.60062 | 21294 ft | 411 kts | 147° |
| 2026-05-01 13:38 | 50.42142 | 8.65419 | 21895 ft | 413 kts | 137° |
| 2026-05-01 13:38 | 50.40041 | 8.68523 | 22191 ft | 415 kts | 135° |
| 2026-05-01 13:38 | 50.37970 | 8.71653 | 22478 ft | 417 kts | 135° |
| 2026-05-01 13:39 | 50.35886 | 8.74808 | 22754 ft | 419 kts | 135° |
| 2026-05-01 13:39 | 50.33765 | 8.78014 | 23032 ft | 422 kts | 135° |
| 2026-05-01 13:39 | 50.31668 | 8.81173 | 23302 ft | 424 kts | 135° |
| 2026-05-01 13:39 | 50.29525 | 8.84395 | 23569 ft | 426 kts | 135° |
| 2026-05-01 13:40 | 50.27398 | 8.87585 | 23822 ft | 428 kts | 135° |
| 2026-05-01 13:40 | 50.25249 | 8.90806 | 24074 ft | 430 kts | 135° |
| 2026-05-01 13:40 | 50.23075 | 8.94056 | 24324 ft | 432 kts | 135° |
| 2026-05-01 13:40 | 50.20897 | 8.97307 | 24576 ft | 434 kts | 135° |
| 2026-05-01 13:41 | 50.18734 | 9.00534 | 24819 ft | 435 kts | 135° |
| 2026-05-01 13:41 | 50.16526 | 9.03823 | 25057 ft | 437 kts | 135° |
| 2026-05-01 13:41 | 50.14333 | 9.07085 | 25279 ft | 439 kts | 135° |
| 2026-05-01 13:41 | 50.12113 | 9.10382 | 25491 ft | 441 kts | 135° |
| 2026-05-01 13:42 | 50.09907 | 9.13651 | 25699 ft | 442 kts | 135° |
| 2026-05-01 13:42 | 50.07670 | 9.16962 | 25911 ft | 444 kts | 135° |
| 2026-05-01 13:42 | 50.05423 | 9.20287 | 26123 ft | 445 kts | 135° |
| 2026-05-01 13:42 | 50.03192 | 9.23583 | 26317 ft | 447 kts | 135° |
| 2026-05-01 13:43 | 50.00950 | 9.26893 | 26514 ft | 449 kts | 135° |
| 2026-05-01 13:43 | 49.98660 | 9.30269 | 26710 ft | 450 kts | 135° |
| 2026-05-01 13:43 | 49.96408 | 9.33585 | 26897 ft | 451 kts | 135° |
| 2026-05-01 13:43 | 49.94144 | 9.36916 | 27142 ft | 451 kts | 135° |
| 2026-05-01 13:44 | 49.91833 | 9.40312 | 27430 ft | 450 kts | 135° |
| 2026-05-01 13:44 | 49.89510 | 9.43721 | 27708 ft | 450 kts | 135° |
| 2026-05-01 13:44 | 49.87235 | 9.47054 | 27962 ft | 449 kts | 135° |
| 2026-05-01 13:44 | 49.84958 | 9.50384 | 28206 ft | 449 kts | 135° |
| 2026-05-01 13:45 | 49.82670 | 9.53725 | 28445 ft | 448 kts | 135° |
| 2026-05-01 13:45 | 49.80398 | 9.57033 | 28675 ft | 448 kts | 135° |
| 2026-05-01 13:45 | 49.78149 | 9.60300 | 28900 ft | 448 kts | 135° |
| 2026-05-01 13:45 | 49.75869 | 9.63607 | 29127 ft | 447 kts | 135° |
| 2026-05-01 13:46 | 49.73603 | 9.66889 | 29349 ft | 447 kts | 135° |
| 2026-05-01 13:46 | 49.71341 | 9.70164 | 29571 ft | 447 kts | 135° |
| 2026-05-01 13:46 | 49.69051 | 9.73474 | 29798 ft | 446 kts | 135° |
| 2026-05-01 13:46 | 49.66807 | 9.76716 | 30020 ft | 445 kts | 135° |
| 2026-05-01 13:47 | 49.64539 | 9.79986 | 30233 ft | 445 kts | 135° |
| 2026-05-01 13:47 | 49.62309 | 9.83198 | 30424 ft | 445 kts | 135° |
| 2026-05-01 13:47 | 49.60027 | 9.86481 | 30592 ft | 445 kts | 135° |
| 2026-05-01 13:47 | 49.57776 | 9.89715 | 30737 ft | 446 kts | 135° |
| 2026-05-01 13:48 | 49.55626 | 9.92801 | 30870 ft | 446 kts | 135° |
| 2026-05-01 13:48 | 49.53331 | 9.96089 | 31004 ft | 447 kts | 135° |
| 2026-05-01 13:48 | 49.51073 | 9.99321 | 31135 ft | 448 kts | 135° |
| 2026-05-01 13:48 | 49.48776 | 10.02604 | 31272 ft | 449 kts | 135° |
| 2026-05-01 13:49 | 49.46503 | 10.05848 | 31330 ft | 450 kts | 135° |
| 2026-05-01 13:49 | 49.41917 | 10.12381 | 31338 ft | 450 kts | 135° |
| 2026-05-01 13:50 | 49.37345 | 10.18876 | 31342 ft | 450 kts | 135° |
| 2026-05-01 13:50 | 49.32764 | 10.25367 | 31341 ft | 450 kts | 135° |
| 2026-05-01 13:51 | 49.28172 | 10.31859 | 31343 ft | 451 kts | 135° |
| 2026-05-01 13:51 | 49.23539 | 10.38389 | 31331 ft | 451 kts | 135° |
| 2026-05-01 13:52 | 49.19033 | 10.45054 | 31325 ft | 451 kts | 133° |
| 2026-05-01 13:52 | 49.14568 | 10.51741 | 31323 ft | 451 kts | 133° |
| 2026-05-01 13:53 | 49.10083 | 10.58397 | 31317 ft | 451 kts | 133° |
| 2026-05-01 13:53 | 49.03319 | 10.68392 | 31314 ft | 452 kts | 134° |
| 2026-05-01 13:54 | 48.98815 | 10.75012 | 31314 ft | 452 kts | 134° |
| 2026-05-01 13:54 | 48.94288 | 10.81652 | 31307 ft | 452 kts | 134° |
| 2026-05-01 13:55 | 48.89780 | 10.88247 | 31309 ft | 452 kts | 134° |
| 2026-05-01 13:55 | 48.85236 | 10.94896 | 31318 ft | 452 kts | 133° |
| 2026-05-01 13:56 | 48.80715 | 11.01495 | 31321 ft | 453 kts | 133° |
| 2026-05-01 13:56 | 48.76170 | 11.08105 | 31321 ft | 453 kts | 133° |
| 2026-05-01 13:57 | 48.72370 | 11.13603 | 31322 ft | 453 kts | 133° |
| 2026-05-01 13:57 | 48.67086 | 11.21241 | 31321 ft | 452 kts | 132° |
| 2026-05-01 13:58 | 48.62844 | 11.28262 | 31327 ft | 450 kts | 126° |
| 2026-05-01 13:58 | 48.59067 | 11.35763 | 31324 ft | 449 kts | 123° |
| 2026-05-01 13:59 | 48.55342 | 11.43272 | 31325 ft | 449 kts | 123° |
| 2026-05-01 13:59 | 48.51576 | 11.50788 | 31316 ft | 450 kts | 125° |
| 2026-05-01 14:00 | 48.47041 | 11.57332 | 31311 ft | 456 kts | 140° |
| 2026-05-01 14:00 | 48.41470 | 11.61968 | 31313 ft | 462 kts | 155° |
| 2026-05-01 14:01 | 48.35245 | 11.64570 | 31315 ft | 465 kts | 164° |
| 2026-05-01 14:01 | 48.29152 | 11.67627 | 31318 ft | 461 kts | 152° |
| 2026-05-01 14:02 | 48.23738 | 11.72698 | 31316 ft | 456 kts | 138° |
| 2026-05-01 14:02 | 48.19291 | 11.79323 | 31309 ft | 451 kts | 129° |
| 2026-05-01 14:03 | 48.14846 | 11.85964 | 31299 ft | 455 kts | 134° |
| 2026-05-01 14:03 | 48.10216 | 11.92384 | 31296 ft | 455 kts | 134° |
| 2026-05-01 14:04 | 48.05568 | 11.98785 | 31292 ft | 455 kts | 134° |
| 2026-05-01 14:04 | 48.01680 | 12.04126 | 31287 ft | 455 kts | 134° |
| 2026-05-01 14:05 | 47.96261 | 12.11551 | 31289 ft | 454 kts | 134° |
| 2026-05-01 14:05 | 47.91559 | 12.17773 | 31290 ft | 455 kts | 136° |
| 2026-05-01 14:06 | 47.86723 | 12.23854 | 31298 ft | 456 kts | 136° |
| 2026-05-01 14:06 | 47.81894 | 12.29916 | 31303 ft | 456 kts | 135° |
| 2026-05-01 14:07 | 47.77190 | 12.35804 | 31312 ft | 456 kts | 135° |